SIA922 WSSS-WARR
Flight info
| Callsign | SIA922 |
|---|---|
| Flight time | 1h 45m |
| Altitude | 41000 |
| Route | IDBUD1B IDBUD T24 SURGA M635 SUMDI |
| Aircraft | A359/H-SDE1E2E3GHIJ1J2J3J5M1P2RWXYZ/LB1D1 |
Departure
| Time | 2026-05-05 19:33 |
|---|---|
| Airport | Singapore Changi Airport (WSSS) |
Arrival
| Time | 2026-05-05 21:19 |
|---|---|
| Airport | Juanda International Airport (WARR) |
| Time | Latitude | Longitude | Altitude | Speed | Heading |
|---|---|---|---|---|---|
| 2026-05-05 19:06 | 1.35040 | 103.98827 | 36 ft | 0 kts | 291° |
| 2026-05-05 19:22 | 1.35046 | 103.98812 | 37 ft | 4 kts | 291° |
| 2026-05-05 19:22 | 1.35050 | 103.98803 | 37 ft | 4 kts | 291° |
| 2026-05-05 19:23 | 1.35040 | 103.98828 | 34 ft | 4 kts | 292° |
| 2026-05-05 19:23 | 1.35029 | 103.98853 | 33 ft | 4 kts | 292° |
| 2026-05-05 19:23 | 1.35020 | 103.98875 | 34 ft | 3 kts | 292° |
| 2026-05-05 19:23 | 1.35016 | 103.98898 | 33 ft | 4 kts | 236° |
| 2026-05-05 19:24 | 1.35036 | 103.98910 | 35 ft | 4 kts | 200° |
| 2026-05-05 19:24 | 1.35035 | 103.98910 | 35 ft | 4 kts | 202° |
| 2026-05-05 19:24 | 1.35008 | 103.98898 | 33 ft | 4 kts | 202° |
| 2026-05-05 19:24 | 1.34982 | 103.98887 | 37 ft | 4 kts | 202° |
| 2026-05-05 19:25 | 1.34978 | 103.98885 | 37 ft | 0 kts | 202° |
| 2026-05-05 19:27 | 1.34963 | 103.98879 | 37 ft | 5 kts | 202° |
| 2026-05-05 19:27 | 1.34910 | 103.98857 | 37 ft | 11 kts | 202° |
| 2026-05-05 19:28 | 1.34827 | 103.98822 | 37 ft | 14 kts | 202° |
| 2026-05-05 19:28 | 1.34730 | 103.98782 | 37 ft | 16 kts | 202° |
| 2026-05-05 19:28 | 1.34622 | 103.98737 | 37 ft | 18 kts | 202° |
| 2026-05-05 19:28 | 1.34528 | 103.98675 | 37 ft | 13 kts | 257° |
| 2026-05-05 19:29 | 1.34554 | 103.98584 | 37 ft | 15 kts | 293° |
| 2026-05-05 19:29 | 1.34589 | 103.98503 | 44 ft | 11 kts | 293° |
| 2026-05-05 19:29 | 1.34618 | 103.98435 | 52 ft | 12 kts | 293° |
| 2026-05-05 19:29 | 1.34657 | 103.98344 | 48 ft | 16 kts | 293° |
| 2026-05-05 19:30 | 1.34706 | 103.98229 | 39 ft | 21 kts | 293° |
| 2026-05-05 19:30 | 1.34760 | 103.98104 | 37 ft | 13 kts | 293° |
| 2026-05-05 19:30 | 1.34799 | 103.98013 | 37 ft | 15 kts | 293° |
| 2026-05-05 19:30 | 1.34843 | 103.97909 | 37 ft | 17 kts | 293° |
| 2026-05-05 19:31 | 1.34889 | 103.97802 | 37 ft | 14 kts | 293° |
| 2026-05-05 19:31 | 1.34920 | 103.97758 | 37 ft | 6 kts | 339° |
| 2026-05-05 19:31 | 1.34939 | 103.97763 | 37 ft | 0 kts | 23° |
| 2026-05-05 19:32 | 1.35005 | 103.97791 | 37 ft | 36 kts | 23° |
| 2026-05-05 19:32 | 1.35465 | 103.97986 | 37 ft | 105 kts | 23° |
| 2026-05-05 19:33 | 1.36320 | 103.98348 | 38 ft | 161 kts | 23° |
| 2026-05-05 19:33 | 1.37393 | 103.98810 | 613 ft | 165 kts | 24° |
| 2026-05-05 19:33 | 1.38088 | 103.99105 | 1073 ft | 163 kts | 24° |
| 2026-05-05 19:33 | 1.39193 | 103.99571 | 1553 ft | 186 kts | 24° |
| 2026-05-05 19:34 | 1.40479 | 104.00115 | 1792 ft | 216 kts | 24° |
| 2026-05-05 19:34 | 1.41954 | 104.00738 | 2082 ft | 244 kts | 23° |
| 2026-05-05 19:34 | 1.43579 | 104.01425 | 2580 ft | 260 kts | 23° |
| 2026-05-05 19:35 | 1.46931 | 104.02961 | 4030 ft | 270 kts | 34° |
| 2026-05-05 19:35 | 1.48192 | 104.04333 | 4781 ft | 272 kts | 63° |
| 2026-05-05 19:35 | 1.48611 | 104.06161 | 5502 ft | 274 kts | 92° |
| 2026-05-05 19:35 | 1.48128 | 104.07999 | 6221 ft | 276 kts | 113° |
| 2026-05-05 19:36 | 1.47314 | 104.09751 | 6926 ft | 279 kts | 116° |
| 2026-05-05 19:36 | 1.46464 | 104.11506 | 7660 ft | 282 kts | 116° |
| 2026-05-05 19:36 | 1.45613 | 104.13286 | 8419 ft | 285 kts | 116° |
| 2026-05-05 19:36 | 1.44763 | 104.15087 | 9187 ft | 288 kts | 115° |
| 2026-05-05 19:37 | 1.43919 | 104.16887 | 9917 ft | 291 kts | 115° |
| 2026-05-05 19:37 | 1.43051 | 104.18751 | 10450 ft | 304 kts | 115° |
| 2026-05-05 19:37 | 1.42136 | 104.20727 | 10724 ft | 323 kts | 115° |
| 2026-05-05 19:37 | 1.41166 | 104.22822 | 10987 ft | 341 kts | 115° |
| 2026-05-05 19:38 | 1.40146 | 104.25024 | 11279 ft | 356 kts | 115° |
| 2026-05-05 19:38 | 1.39094 | 104.27297 | 11770 ft | 363 kts | 115° |
| 2026-05-05 19:38 | 1.38028 | 104.29601 | 12355 ft | 367 kts | 114° |
| 2026-05-05 19:38 | 1.36954 | 104.31924 | 12950 ft | 370 kts | 114° |
| 2026-05-05 19:39 | 1.35871 | 104.34263 | 13533 ft | 372 kts | 114° |
| 2026-05-05 19:39 | 1.34767 | 104.36617 | 14061 ft | 376 kts | 116° |
| 2026-05-05 19:39 | 1.33344 | 104.38815 | 14506 ft | 380 kts | 130° |
| 2026-05-05 19:39 | 1.31329 | 104.40535 | 14992 ft | 385 kts | 148° |
| 2026-05-05 19:40 | 1.28860 | 104.41591 | 15482 ft | 389 kts | 162° |
| 2026-05-05 19:40 | 1.26231 | 104.42296 | 15970 ft | 393 kts | 165° |
| 2026-05-05 19:40 | 1.23573 | 104.42959 | 16451 ft | 396 kts | 165° |
| 2026-05-05 19:40 | 1.20892 | 104.43632 | 16932 ft | 398 kts | 165° |
| 2026-05-05 19:41 | 1.18196 | 104.44316 | 17409 ft | 401 kts | 164° |
| 2026-05-05 19:41 | 1.15484 | 104.45010 | 17866 ft | 404 kts | 164° |
| 2026-05-05 19:41 | 1.12747 | 104.45713 | 18299 ft | 407 kts | 164° |
| 2026-05-05 19:41 | 1.09997 | 104.46426 | 18701 ft | 410 kts | 163° |
| 2026-05-05 19:42 | 1.07239 | 104.47186 | 19084 ft | 413 kts | 163° |
| 2026-05-05 19:42 | 1.04467 | 104.47964 | 19467 ft | 415 kts | 163° |
| 2026-05-05 19:42 | 1.01675 | 104.48746 | 19864 ft | 418 kts | 163° |
| 2026-05-05 19:42 | 0.98862 | 104.49531 | 20261 ft | 421 kts | 163° |
| 2026-05-05 19:43 | 0.96035 | 104.50319 | 20658 ft | 423 kts | 163° |
| 2026-05-05 19:43 | 0.93187 | 104.51111 | 21050 ft | 426 kts | 163° |
| 2026-05-05 19:43 | 0.90322 | 104.51908 | 21440 ft | 429 kts | 163° |
| 2026-05-05 19:43 | 0.87435 | 104.52710 | 21844 ft | 432 kts | 163° |
| 2026-05-05 19:44 | 0.84532 | 104.53517 | 22246 ft | 435 kts | 163° |
| 2026-05-05 19:44 | 0.81648 | 104.54319 | 22633 ft | 438 kts | 163° |
| 2026-05-05 19:44 | 0.78708 | 104.55136 | 23018 ft | 441 kts | 163° |
| 2026-05-05 19:44 | 0.75747 | 104.55959 | 23400 ft | 443 kts | 163° |
| 2026-05-05 19:45 | 0.72760 | 104.56789 | 23722 ft | 446 kts | 163° |
| 2026-05-05 19:45 | 0.69765 | 104.57621 | 24058 ft | 448 kts | 163° |
| 2026-05-05 19:45 | 0.66759 | 104.58456 | 24395 ft | 450 kts | 163° |
| 2026-05-05 19:45 | 0.63743 | 104.59313 | 24736 ft | 452 kts | 162° |
| 2026-05-05 19:46 | 0.60721 | 104.60216 | 25094 ft | 454 kts | 161° |
| 2026-05-05 19:46 | 0.57689 | 104.61127 | 25466 ft | 456 kts | 162° |
| 2026-05-05 19:46 | 0.54638 | 104.62041 | 25853 ft | 459 kts | 162° |
| 2026-05-05 19:46 | 0.51632 | 104.63109 | 26243 ft | 460 kts | 155° |
| 2026-05-05 19:47 | 0.48825 | 104.64646 | 26648 ft | 460 kts | 144° |
| 2026-05-05 19:47 | 0.46354 | 104.66675 | 27044 ft | 461 kts | 134° |
| 2026-05-05 19:47 | 0.44304 | 104.69140 | 27440 ft | 462 kts | 123° |
| 2026-05-05 19:47 | 0.42617 | 104.71875 | 27840 ft | 464 kts | 119° |
| 2026-05-05 19:48 | 0.41005 | 104.74684 | 28239 ft | 467 kts | 118° |
| 2026-05-05 19:48 | 0.39389 | 104.77511 | 28637 ft | 470 kts | 119° |
| 2026-05-05 19:48 | 0.37781 | 104.80314 | 29015 ft | 473 kts | 119° |
| 2026-05-05 19:48 | 0.36136 | 104.83171 | 29409 ft | 476 kts | 119° |
| 2026-05-05 19:49 | 0.34482 | 104.86040 | 29762 ft | 478 kts | 119° |
| 2026-05-05 19:49 | 0.32814 | 104.88928 | 30089 ft | 481 kts | 119° |
| 2026-05-05 19:49 | 0.31138 | 104.91830 | 30392 ft | 484 kts | 119° |
| 2026-05-05 19:49 | 0.29451 | 104.94749 | 30686 ft | 486 kts | 119° |
| 2026-05-05 19:50 | 0.27758 | 104.97679 | 30974 ft | 488 kts | 119° |
| 2026-05-05 19:50 | 0.26055 | 105.00624 | 31259 ft | 490 kts | 119° |
| 2026-05-05 19:50 | 0.24348 | 105.03579 | 31530 ft | 493 kts | 119° |
| 2026-05-05 19:50 | 0.22635 | 105.06553 | 31802 ft | 495 kts | 119° |
| 2026-05-05 19:51 | 0.20913 | 105.09532 | 32061 ft | 497 kts | 120° |
| 2026-05-05 19:51 | 0.19180 | 105.12525 | 32311 ft | 499 kts | 120° |
| 2026-05-05 19:51 | 0.17440 | 105.15530 | 32557 ft | 501 kts | 120° |
| 2026-05-05 19:51 | 0.15692 | 105.18549 | 32790 ft | 502 kts | 120° |
| 2026-05-05 19:52 | 0.13945 | 105.21568 | 33129 ft | 502 kts | 120° |
| 2026-05-05 19:52 | 0.12200 | 105.24583 | 33493 ft | 501 kts | 120° |
| 2026-05-05 19:52 | 0.10459 | 105.27592 | 33844 ft | 500 kts | 120° |
| 2026-05-05 19:52 | 0.08722 | 105.30596 | 34150 ft | 499 kts | 120° |
| 2026-05-05 19:53 | 0.06990 | 105.33593 | 34458 ft | 498 kts | 120° |
| 2026-05-05 19:53 | 0.05260 | 105.36584 | 34742 ft | 497 kts | 120° |
| 2026-05-05 19:53 | 0.03532 | 105.39573 | 35027 ft | 496 kts | 120° |
| 2026-05-05 19:53 | 0.01829 | 105.42517 | 35294 ft | 496 kts | 120° |
| 2026-05-05 19:54 | 0.00105 | 105.45498 | 35554 ft | 496 kts | 120° |
| 2026-05-05 19:54 | -0.01619 | 105.48480 | 35822 ft | 495 kts | 120° |
| 2026-05-05 19:54 | -0.03338 | 105.51452 | 36093 ft | 494 kts | 120° |
| 2026-05-05 19:54 | -0.05056 | 105.54424 | 36340 ft | 494 kts | 120° |
| 2026-05-05 19:55 | -0.06775 | 105.57395 | 36586 ft | 494 kts | 120° |
| 2026-05-05 19:55 | -0.08493 | 105.60367 | 36831 ft | 493 kts | 120° |
| 2026-05-05 19:55 | -0.10207 | 105.63331 | 37076 ft | 493 kts | 120° |
| 2026-05-05 19:55 | -0.11921 | 105.66294 | 37316 ft | 493 kts | 120° |
| 2026-05-05 19:56 | -0.13635 | 105.69257 | 37530 ft | 493 kts | 120° |
| 2026-05-05 19:56 | -0.15350 | 105.72223 | 37776 ft | 492 kts | 120° |
| 2026-05-05 19:56 | -0.17059 | 105.75179 | 37987 ft | 492 kts | 120° |
| 2026-05-05 19:56 | -0.18768 | 105.78135 | 38234 ft | 491 kts | 120° |
| 2026-05-05 19:57 | -0.20475 | 105.81087 | 38465 ft | 490 kts | 120° |
| 2026-05-05 19:57 | -0.22181 | 105.84037 | 38629 ft | 490 kts | 120° |
| 2026-05-05 19:57 | -0.23886 | 105.86985 | 38787 ft | 490 kts | 120° |
| 2026-05-05 19:58 | -0.27273 | 105.92844 | 38834 ft | 490 kts | 120° |
| 2026-05-05 19:58 | -0.30678 | 105.98732 | 38834 ft | 490 kts | 120° |
| 2026-05-05 19:59 | -0.34086 | 106.04626 | 38833 ft | 490 kts | 119° |
| 2026-05-05 19:59 | -0.37496 | 106.10523 | 38834 ft | 490 kts | 120° |
| 2026-05-05 20:00 | -0.40912 | 106.16432 | 38829 ft | 491 kts | 120° |
| 2026-05-05 20:00 | -0.44328 | 106.22339 | 38833 ft | 491 kts | 120° |
| 2026-05-05 20:01 | -0.47745 | 106.28249 | 38831 ft | 491 kts | 120° |
| 2026-05-05 20:01 | -0.51164 | 106.34162 | 38830 ft | 491 kts | 120° |
| 2026-05-05 20:02 | -0.54558 | 106.40032 | 38830 ft | 491 kts | 120° |
| 2026-05-05 20:02 | -0.57974 | 106.45941 | 38830 ft | 491 kts | 120° |
| 2026-05-05 20:03 | -0.61509 | 106.51778 | 38831 ft | 491 kts | 126° |
| 2026-05-05 20:03 | -0.65855 | 106.57048 | 38831 ft | 492 kts | 130° |
| 2026-05-05 20:04 | -0.70383 | 106.62168 | 38830 ft | 492 kts | 131° |
| 2026-05-05 20:04 | -0.74943 | 106.67267 | 38826 ft | 492 kts | 131° |
| 2026-05-05 20:05 | -0.79495 | 106.72376 | 38829 ft | 493 kts | 131° |
| 2026-05-05 20:05 | -0.84050 | 106.77507 | 38831 ft | 494 kts | 131° |
| 2026-05-05 20:06 | -0.88604 | 106.82643 | 38824 ft | 494 kts | 131° |
| 2026-05-05 20:06 | -0.93125 | 106.87740 | 38831 ft | 494 kts | 131° |
| 2026-05-05 20:07 | -0.97681 | 106.92877 | 38829 ft | 494 kts | 131° |
| 2026-05-05 20:07 | -1.02237 | 106.98014 | 38831 ft | 494 kts | 131° |
| 2026-05-05 20:08 | -1.06794 | 107.03152 | 38831 ft | 494 kts | 131° |
| 2026-05-05 20:08 | -1.11350 | 107.08289 | 38826 ft | 494 kts | 131° |
| 2026-05-05 20:09 | -1.15902 | 107.13423 | 38825 ft | 493 kts | 131° |
| 2026-05-05 20:09 | -1.20452 | 107.18554 | 38826 ft | 493 kts | 131° |
| 2026-05-05 20:10 | -1.25001 | 107.23684 | 38826 ft | 493 kts | 131° |
| 2026-05-05 20:10 | -1.29550 | 107.28815 | 38831 ft | 493 kts | 131° |
| 2026-05-05 20:11 | -1.34099 | 107.33946 | 38828 ft | 493 kts | 131° |
| 2026-05-05 20:11 | -1.38643 | 107.39086 | 38828 ft | 493 kts | 131° |
| 2026-05-05 20:12 | -1.43122 | 107.44273 | 38831 ft | 493 kts | 130° |
| 2026-05-05 20:12 | -1.47585 | 107.49473 | 38829 ft | 493 kts | 130° |
| 2026-05-05 20:13 | -1.52028 | 107.54636 | 38829 ft | 493 kts | 130° |
| 2026-05-05 20:13 | -1.56512 | 107.59834 | 38831 ft | 493 kts | 130° |
| 2026-05-05 20:14 | -1.60993 | 107.65026 | 38830 ft | 493 kts | 130° |
| 2026-05-05 20:14 | -1.65477 | 107.70221 | 38830 ft | 493 kts | 130° |
| 2026-05-05 20:15 | -1.69959 | 107.75416 | 38834 ft | 493 kts | 130° |
| 2026-05-05 20:15 | -1.74438 | 107.80607 | 38832 ft | 493 kts | 130° |
| 2026-05-05 20:16 | -1.78912 | 107.85793 | 38833 ft | 492 kts | 130° |
| 2026-05-05 20:16 | -1.83386 | 107.90980 | 38830 ft | 493 kts | 131° |
| 2026-05-05 20:17 | -1.87876 | 107.96186 | 38831 ft | 495 kts | 131° |
| 2026-05-05 20:17 | -1.92377 | 108.01404 | 38832 ft | 495 kts | 131° |
| 2026-05-05 20:18 | -1.96875 | 108.06621 | 38831 ft | 495 kts | 131° |
| 2026-05-05 20:18 | -2.01373 | 108.11837 | 38827 ft | 495 kts | 131° |
| 2026-05-05 20:19 | -2.05870 | 108.17054 | 38834 ft | 495 kts | 131° |
| 2026-05-05 20:19 | -2.10370 | 108.22274 | 38834 ft | 496 kts | 131° |
| 2026-05-05 20:20 | -2.14874 | 108.27490 | 38834 ft | 495 kts | 131° |
| 2026-05-05 20:20 | -2.19374 | 108.32704 | 38837 ft | 495 kts | 131° |
| 2026-05-05 20:21 | -2.23840 | 108.37880 | 38831 ft | 495 kts | 131° |
| 2026-05-05 20:21 | -2.28336 | 108.43093 | 38836 ft | 495 kts | 131° |
| 2026-05-05 20:22 | -2.32831 | 108.48305 | 38836 ft | 495 kts | 131° |
| 2026-05-05 20:22 | -2.37323 | 108.53515 | 38834 ft | 494 kts | 131° |
| 2026-05-05 20:23 | -2.41811 | 108.58720 | 38835 ft | 494 kts | 131° |
| 2026-05-05 20:23 | -2.46301 | 108.63928 | 38836 ft | 494 kts | 131° |
| 2026-05-05 20:24 | -2.50789 | 108.69136 | 38832 ft | 494 kts | 131° |
| 2026-05-05 20:24 | -2.55288 | 108.74336 | 38830 ft | 494 kts | 131° |
| 2026-05-05 20:25 | -2.59783 | 108.79523 | 38835 ft | 493 kts | 130° |
| 2026-05-05 20:25 | -2.64268 | 108.84704 | 38834 ft | 492 kts | 130° |
| 2026-05-05 20:26 | -2.68742 | 108.89876 | 38839 ft | 492 kts | 130° |
| 2026-05-05 20:26 | -2.73217 | 108.95051 | 38836 ft | 492 kts | 130° |
| 2026-05-05 20:27 | -2.77687 | 109.00221 | 38833 ft | 491 kts | 130° |
| 2026-05-05 20:27 | -2.82159 | 109.05394 | 38839 ft | 491 kts | 130° |
| 2026-05-05 20:28 | -2.86631 | 109.10567 | 38839 ft | 492 kts | 130° |
| 2026-05-05 20:28 | -2.91101 | 109.15744 | 38836 ft | 492 kts | 130° |
| 2026-05-05 20:29 | -2.94813 | 109.20057 | 38837 ft | 492 kts | 130° |
| 2026-05-05 20:29 | -3.00008 | 109.26093 | 38839 ft | 493 kts | 130° |
| 2026-05-05 20:30 | -3.04482 | 109.31291 | 38838 ft | 493 kts | 130° |
| 2026-05-05 20:30 | -3.08228 | 109.35645 | 38840 ft | 493 kts | 130° |
| 2026-05-05 20:31 | -3.12668 | 109.40805 | 38842 ft | 493 kts | 130° |
| 2026-05-05 20:31 | -3.17139 | 109.46002 | 38842 ft | 492 kts | 130° |
| 2026-05-05 20:32 | -3.21598 | 109.51185 | 38842 ft | 491 kts | 129° |
| 2026-05-05 20:32 | -3.26053 | 109.56365 | 38842 ft | 491 kts | 129° |
| 2026-05-05 20:33 | -3.30501 | 109.61539 | 38840 ft | 491 kts | 130° |
| 2026-05-05 20:33 | -3.34954 | 109.66718 | 38838 ft | 491 kts | 129° |
| 2026-05-05 20:34 | -3.39405 | 109.71896 | 38842 ft | 491 kts | 129° |
| 2026-05-05 20:34 | -3.43857 | 109.77074 | 38842 ft | 491 kts | 129° |
| 2026-05-05 20:35 | -3.48309 | 109.82255 | 38837 ft | 491 kts | 129° |
| 2026-05-05 20:35 | -3.52742 | 109.87415 | 38832 ft | 492 kts | 130° |
| 2026-05-05 20:36 | -3.57210 | 109.92615 | 38842 ft | 493 kts | 130° |
| 2026-05-05 20:36 | -3.61690 | 109.97832 | 38836 ft | 497 kts | 130° |
| 2026-05-05 20:37 | -3.66211 | 110.03095 | 38836 ft | 499 kts | 129° |
| 2026-05-05 20:37 | -3.70738 | 110.08368 | 38840 ft | 500 kts | 130° |
| 2026-05-05 20:38 | -3.75266 | 110.13641 | 38839 ft | 499 kts | 130° |
| 2026-05-05 20:38 | -3.79780 | 110.18899 | 38841 ft | 496 kts | 129° |
| 2026-05-05 20:39 | -3.84275 | 110.24136 | 38842 ft | 496 kts | 129° |
| 2026-05-05 20:39 | -3.88769 | 110.29375 | 38843 ft | 496 kts | 129° |
| 2026-05-05 20:40 | -3.93268 | 110.34619 | 38844 ft | 496 kts | 129° |
| 2026-05-05 20:40 | -3.97754 | 110.39888 | 38842 ft | 498 kts | 127° |
| 2026-05-05 20:41 | -4.01971 | 110.45392 | 38844 ft | 498 kts | 126° |
| 2026-05-05 20:41 | -4.06178 | 110.50897 | 38842 ft | 498 kts | 126° |
| 2026-05-05 20:42 | -4.10404 | 110.56390 | 38843 ft | 498 kts | 126° |
| 2026-05-05 20:42 | -4.14639 | 110.61884 | 38843 ft | 498 kts | 127° |
| 2026-05-05 20:43 | -4.18877 | 110.67377 | 38839 ft | 498 kts | 127° |
| 2026-05-05 20:43 | -4.23111 | 110.72865 | 38844 ft | 498 kts | 126° |
| 2026-05-05 20:44 | -4.27345 | 110.78353 | 38842 ft | 498 kts | 127° |
| 2026-05-05 20:44 | -4.31557 | 110.83815 | 38844 ft | 499 kts | 127° |
| 2026-05-05 20:45 | -4.37914 | 110.92059 | 38842 ft | 498 kts | 127° |
| 2026-05-05 20:45 | -4.42142 | 110.97545 | 38841 ft | 497 kts | 126° |
| 2026-05-05 20:46 | -4.46370 | 111.03030 | 38850 ft | 498 kts | 127° |
| 2026-05-05 20:46 | -4.50604 | 111.08526 | 38851 ft | 498 kts | 127° |
| 2026-05-05 20:47 | -4.54839 | 111.14024 | 38844 ft | 498 kts | 126° |
| 2026-05-05 20:47 | -4.59067 | 111.19503 | 38848 ft | 496 kts | 127° |
| 2026-05-05 20:48 | -4.64070 | 111.24244 | 38844 ft | 499 kts | 146° |
| 2026-05-05 20:48 | -4.70041 | 111.27784 | 38846 ft | 498 kts | 150° |
| 2026-05-05 20:49 | -4.76055 | 111.31223 | 38848 ft | 498 kts | 149° |
| 2026-05-05 20:49 | -4.82073 | 111.34679 | 38849 ft | 498 kts | 149° |
| 2026-05-05 20:50 | -4.88099 | 111.38145 | 38847 ft | 500 kts | 149° |
| 2026-05-05 20:50 | -4.94126 | 111.41615 | 38846 ft | 499 kts | 149° |
| 2026-05-05 20:51 | -5.00144 | 111.45081 | 38851 ft | 499 kts | 150° |
| 2026-05-05 20:51 | -5.06151 | 111.48541 | 38852 ft | 497 kts | 149° |
| 2026-05-05 20:52 | -5.12161 | 111.52004 | 38849 ft | 498 kts | 149° |
| 2026-05-05 20:52 | -5.18180 | 111.55473 | 38854 ft | 500 kts | 149° |
| 2026-05-05 20:53 | -5.24206 | 111.58947 | 38857 ft | 499 kts | 150° |
| 2026-05-05 20:53 | -5.30221 | 111.62415 | 38851 ft | 498 kts | 150° |
| 2026-05-05 20:54 | -5.36193 | 111.65859 | 38849 ft | 498 kts | 150° |
| 2026-05-05 20:54 | -5.42206 | 111.69327 | 38852 ft | 498 kts | 150° |
| 2026-05-05 20:55 | -5.48227 | 111.72799 | 38857 ft | 499 kts | 150° |
| 2026-05-05 20:55 | -5.54251 | 111.76272 | 38852 ft | 499 kts | 150° |
| 2026-05-05 20:56 | -5.60268 | 111.79744 | 38830 ft | 498 kts | 150° |
| 2026-05-05 20:56 | -5.63259 | 111.81471 | 38346 ft | 495 kts | 150° |
| 2026-05-05 20:56 | -5.66250 | 111.83198 | 37553 ft | 496 kts | 150° |
| 2026-05-05 20:57 | -5.69263 | 111.84938 | 36621 ft | 502 kts | 150° |
| 2026-05-05 20:57 | -5.72289 | 111.86685 | 35926 ft | 502 kts | 150° |
| 2026-05-05 20:57 | -5.75330 | 111.88442 | 35123 ft | 505 kts | 150° |
| 2026-05-05 20:57 | -5.78365 | 111.90195 | 34418 ft | 506 kts | 150° |
| 2026-05-05 20:58 | -5.81040 | 111.91740 | 33789 ft | 507 kts | 150° |
| 2026-05-05 20:58 | -5.84094 | 111.93506 | 33005 ft | 507 kts | 150° |
| 2026-05-05 20:58 | -5.87153 | 111.95274 | 32225 ft | 507 kts | 149° |
| 2026-05-05 20:58 | -5.90205 | 111.97038 | 31504 ft | 506 kts | 150° |
| 2026-05-05 20:59 | -5.93215 | 111.98777 | 30776 ft | 506 kts | 149° |
| 2026-05-05 20:59 | -5.96254 | 112.00534 | 30161 ft | 502 kts | 149° |
| 2026-05-05 20:59 | -5.99270 | 112.02278 | 29528 ft | 498 kts | 149° |
| 2026-05-05 20:59 | -6.02258 | 112.04007 | 28870 ft | 494 kts | 149° |
| 2026-05-05 21:00 | -6.05225 | 112.05722 | 28223 ft | 490 kts | 149° |
| 2026-05-05 21:00 | -6.08166 | 112.07424 | 27585 ft | 487 kts | 149° |
| 2026-05-05 21:00 | -6.11090 | 112.09115 | 26939 ft | 483 kts | 149° |
| 2026-05-05 21:00 | -6.13988 | 112.10792 | 26358 ft | 479 kts | 149° |
| 2026-05-05 21:01 | -6.16864 | 112.12456 | 25751 ft | 475 kts | 149° |
| 2026-05-05 21:01 | -6.19716 | 112.14107 | 25179 ft | 471 kts | 149° |
| 2026-05-05 21:01 | -6.22549 | 112.15746 | 24619 ft | 467 kts | 148° |
| 2026-05-05 21:01 | -6.25354 | 112.17370 | 24054 ft | 464 kts | 149° |
| 2026-05-05 21:02 | -6.28140 | 112.18983 | 23468 ft | 461 kts | 148° |
| 2026-05-05 21:02 | -6.30907 | 112.20585 | 22816 ft | 457 kts | 148° |
| 2026-05-05 21:02 | -6.33643 | 112.22169 | 22207 ft | 452 kts | 148° |
| 2026-05-05 21:02 | -6.36351 | 112.23740 | 21602 ft | 447 kts | 149° |
| 2026-05-05 21:03 | -6.39035 | 112.25295 | 21011 ft | 443 kts | 149° |
| 2026-05-05 21:03 | -6.41685 | 112.26830 | 20455 ft | 437 kts | 149° |
| 2026-05-05 21:03 | -6.44305 | 112.28349 | 19879 ft | 433 kts | 149° |
| 2026-05-05 21:03 | -6.46902 | 112.29854 | 19305 ft | 429 kts | 149° |
| 2026-05-05 21:04 | -6.49437 | 112.31325 | 18775 ft | 424 kts | 149° |
| 2026-05-05 21:04 | -6.51982 | 112.32801 | 18274 ft | 419 kts | 149° |
| 2026-05-05 21:04 | -6.54491 | 112.34255 | 17740 ft | 413 kts | 149° |
| 2026-05-05 21:04 | -6.56974 | 112.35694 | 17066 ft | 411 kts | 149° |
| 2026-05-05 21:05 | -6.59434 | 112.37118 | 16551 ft | 404 kts | 149° |
| 2026-05-05 21:05 | -6.61846 | 112.38517 | 16011 ft | 398 kts | 149° |
| 2026-05-05 21:05 | -6.64242 | 112.39907 | 15325 ft | 397 kts | 149° |
| 2026-05-05 21:05 | -6.66612 | 112.41282 | 14837 ft | 390 kts | 149° |
| 2026-05-05 21:06 | -6.68958 | 112.42644 | 14178 ft | 389 kts | 149° |
| 2026-05-05 21:06 | -6.71290 | 112.43997 | 13650 ft | 384 kts | 149° |
| 2026-05-05 21:06 | -6.73590 | 112.45332 | 13072 ft | 379 kts | 149° |
| 2026-05-05 21:06 | -6.75886 | 112.46625 | 12391 ft | 377 kts | 152° |
| 2026-05-05 21:07 | -6.78318 | 112.47584 | 11884 ft | 372 kts | 161° |
| 2026-05-05 21:07 | -6.80735 | 112.48253 | 11554 ft | 347 kts | 164° |
| 2026-05-05 21:07 | -6.82999 | 112.48818 | 11216 ft | 324 kts | 165° |
| 2026-05-05 21:07 | -6.85119 | 112.49315 | 10912 ft | 302 kts | 165° |
| 2026-05-05 21:08 | -6.87123 | 112.49765 | 10454 ft | 290 kts | 166° |
| 2026-05-05 21:08 | -6.89085 | 112.50195 | 9782 ft | 287 kts | 166° |
| 2026-05-05 21:08 | -6.91048 | 112.50615 | 9298 ft | 288 kts | 166° |
| 2026-05-05 21:08 | -6.92995 | 112.51026 | 8902 ft | 285 kts | 166° |
| 2026-05-05 21:09 | -6.94924 | 112.51430 | 8528 ft | 282 kts | 166° |
| 2026-05-05 21:09 | -6.96842 | 112.51830 | 8116 ft | 281 kts | 166° |
| 2026-05-05 21:09 | -6.98745 | 112.52227 | 7729 ft | 279 kts | 166° |
| 2026-05-05 21:09 | -7.00639 | 112.52620 | 7341 ft | 277 kts | 166° |
| 2026-05-05 21:10 | -7.02524 | 112.53012 | 6917 ft | 277 kts | 166° |
| 2026-05-05 21:10 | -7.04415 | 112.53406 | 6489 ft | 277 kts | 166° |
| 2026-05-05 21:10 | -7.06299 | 112.53797 | 6119 ft | 276 kts | 166° |
| 2026-05-05 21:10 | -7.08147 | 112.54180 | 5721 ft | 274 kts | 166° |
| 2026-05-05 21:11 | -7.10006 | 112.54566 | 5339 ft | 272 kts | 166° |
| 2026-05-05 21:11 | -7.11852 | 112.54948 | 4961 ft | 270 kts | 166° |
| 2026-05-05 21:11 | -7.13685 | 112.55329 | 4569 ft | 268 kts | 166° |
| 2026-05-05 21:11 | -7.15505 | 112.55707 | 4215 ft | 266 kts | 166° |
| 2026-05-05 21:12 | -7.17314 | 112.56083 | 3996 ft | 265 kts | 166° |
| 2026-05-05 21:12 | -7.19119 | 112.56458 | 3852 ft | 265 kts | 166° |
| 2026-05-05 21:12 | -7.20921 | 112.56832 | 3745 ft | 264 kts | 166° |
| 2026-05-05 21:12 | -7.22717 | 112.57205 | 3623 ft | 263 kts | 166° |
| 2026-05-05 21:13 | -7.24507 | 112.57578 | 3503 ft | 262 kts | 166° |
| 2026-05-05 21:13 | -7.26282 | 112.57946 | 3379 ft | 256 kts | 166° |
| 2026-05-05 21:13 | -7.27979 | 112.58297 | 3277 ft | 243 kts | 166° |
| 2026-05-05 21:13 | -7.29595 | 112.58631 | 3161 ft | 232 kts | 166° |
| 2026-05-05 21:14 | -7.31152 | 112.58955 | 3048 ft | 227 kts | 166° |
| 2026-05-05 21:14 | -7.32700 | 112.59278 | 2937 ft | 227 kts | 166° |
| 2026-05-05 21:14 | -7.34117 | 112.59879 | 2799 ft | 217 kts | 136° |
| 2026-05-05 21:14 | -7.34962 | 112.61070 | 2686 ft | 204 kts | 118° |
| 2026-05-05 21:15 | -7.35398 | 112.62377 | 2601 ft | 192 kts | 98° |
| 2026-05-05 21:15 | -7.35540 | 112.63696 | 2495 ft | 189 kts | 99° |
| 2026-05-05 21:15 | -7.35740 | 112.64998 | 2391 ft | 184 kts | 101° |
| 2026-05-05 21:15 | -7.35968 | 112.66245 | 2153 ft | 178 kts | 102° |
| 2026-05-05 21:16 | -7.36173 | 112.67456 | 1920 ft | 173 kts | 99° |
| 2026-05-05 21:16 | -7.36358 | 112.68633 | 1699 ft | 167 kts | 99° |
| 2026-05-05 21:16 | -7.36541 | 112.69768 | 1490 ft | 162 kts | 100° |
| 2026-05-05 21:16 | -7.36719 | 112.70868 | 1275 ft | 156 kts | 100° |
| 2026-05-05 21:17 | -7.36889 | 112.71920 | 1072 ft | 148 kts | 100° |
| 2026-05-05 21:17 | -7.37050 | 112.72919 | 902 ft | 146 kts | 100° |
| 2026-05-05 21:17 | -7.37215 | 112.73940 | 714 ft | 146 kts | 99° |
| 2026-05-05 21:17 | -7.37377 | 112.74937 | 528 ft | 147 kts | 99° |
| 2026-05-05 21:18 | -7.37541 | 112.75954 | 331 ft | 147 kts | 99° |
| 2026-05-05 21:18 | -7.37650 | 112.76643 | 183 ft | 147 kts | 99° |
| 2026-05-05 21:18 | -7.37870 | 112.77985 | 25 ft | 143 kts | 99° |
| 2026-05-05 21:18 | -7.38002 | 112.78823 | 24 ft | 87 kts | 99° |
| 2026-05-05 21:19 | -7.38067 | 112.79225 | 28 ft | 36 kts | 101° |
| 2026-05-05 21:19 | -7.38178 | 112.79363 | 25 ft | 25 kts | 166° |
| 2026-05-05 21:19 | -7.38269 | 112.79281 | 22 ft | 20 kts | 279° |
| 2026-05-05 21:19 | -7.38245 | 112.79137 | 24 ft | 22 kts | 279° |
| 2026-05-05 21:20 | -7.38220 | 112.78981 | 25 ft | 23 kts | 279° |
| 2026-05-05 21:20 | -7.38193 | 112.78815 | 23 ft | 25 kts | 279° |
| 2026-05-05 21:20 | -7.38168 | 112.78647 | 21 ft | 24 kts | 279° |
| 2026-05-05 21:20 | -7.38140 | 112.78474 | 23 ft | 26 kts | 279° |
| 2026-05-05 21:21 | -7.38111 | 112.78299 | 24 ft | 23 kts | 279° |
| 2026-05-05 21:21 | -7.38084 | 112.78132 | 21 ft | 25 kts | 278° |
| 2026-05-05 21:21 | -7.38072 | 112.77992 | 25 ft | 13 kts | 248° |
| 2026-05-05 21:21 | -7.38147 | 112.77955 | 24 ft | 13 kts | 191° |
| 2026-05-05 21:22 | -7.38237 | 112.77926 | 23 ft | 14 kts | 221° |
| 2026-05-05 21:22 | -7.38284 | 112.77901 | 24 ft | 3 kts | 190° |
| 2026-05-05 21:22 | -7.38310 | 112.77896 | 24 ft | 8 kts | 191° |
| 2026-05-05 21:22 | -7.38329 | 112.77893 | 24 ft | 0 kts | 189° |